Time;durP1;ratioP1;P1;durP2;ratioP2;P2;SDS_P1;SDS_P2;PMS_P1;PMS_P2;Temp;Humidity;BMP_temperature;BMP_pressure;BME280_temperature;BME280_humidity;BME280_pressure;Samples;Min_cycle;Max_cycle;Signal;HPM_P1;HPM_P2
2024/04/05 00:02:12;;;;;;;13.63;5.40;;;11.90;99.90;;;;;;825753;172;26422;-81
2024/04/05 00:04:38;;;;;;;12.10;5.07;;;11.90;99.90;;;;;;817066;173;26417;-80
2024/04/05 00:07:05;;;;;;;16.80;4.67;;;11.90;99.90;;;;;;820113;172;26394;-80
2024/04/05 00:09:31;;;;;;;20.13;4.63;;;11.90;99.90;;;;;;825545;172;26911;-80
2024/04/05 00:11:58;;;;;;;13.60;4.73;;;11.90;99.90;;;;;;824777;172;26537;-80
2024/04/05 00:14:25;;;;;;;12.23;3.50;;;12.00;99.90;;;;;;828355;172;26393;-79
2024/04/05 00:16:51;;;;;;;16.07;4.40;;;11.90;99.90;;;;;;825495;172;26985;-81
2024/04/05 00:19:18;;;;;;;10.43;3.73;;;11.90;99.90;;;;;;819408;173;26395;-80
2024/04/05 00:21:44;;;;;;;12.80;3.93;;;11.90;99.90;;;;;;824905;172;26949;-80
2024/04/05 00:24:11;;;;;;;12.27;3.47;;;11.90;99.90;;;;;;827287;173;26388;-80
2024/04/05 00:26:38;;;;;;;13.30;3.40;;;11.90;99.90;;;;;;818726;173;26400;-80
2024/04/05 00:29:04;;;;;;;19.40;4.37;;;11.90;99.90;;;;;;820309;173;26397;-80
2024/04/05 00:31:31;;;;;;;11.30;4.30;;;11.90;99.90;;;;;;824809;173;26416;-80
2024/04/05 00:33:57;;;;;;;13.93;5.40;;;11.80;99.90;;;;;;822505;172;26983;-79
2024/04/05 00:36:24;;;;;;;15.87;4.70;;;11.90;99.90;;;;;;825024;172;26425;-79
2024/04/05 00:38:52;;;;;;;20.43;10.70;;;11.80;99.90;;;;;;818589;173;26393;-79
2024/04/05 00:41:17;;;;;;;14.20;4.57;;;11.90;99.90;;;;;;824475;172;26418;-81
2024/04/05 00:43:44;;;;;;;18.20;4.90;;;11.90;99.90;;;;;;826352;172;26401;-80
2024/04/05 00:46:10;;;;;;;16.83;4.37;;;11.90;99.90;;;;;;824277;172;26935;-81
2024/04/05 00:48:37;;;;;;;16.13;4.00;;;11.90;99.90;;;;;;826755;172;26384;-80
2024/04/05 00:51:06;;;;;;;13.70;4.30;;;11.90;99.90;;;;;;826973;172;26404;-80
2024/04/05 00:53:31;;;;;;;16.57;4.77;;;11.90;99.90;;;;;;824715;172;26478;-80
2024/04/05 00:55:59;;;;;;;14.13;4.40;;;11.80;99.90;;;;;;826690;172;26445;-81
2024/04/05 00:58:24;;;;;;;16.00;4.43;;;11.80;99.90;;;;;;815252;173;26975;-79
2024/04/05 01:00:51;;;;;;;11.57;4.10;;;11.70;99.90;;;;;;816511;173;26411;-80
2024/04/05 01:03:18;;;;;;;13.37;4.23;;;11.70;99.90;;;;;;819274;173;26388;-79
2024/04/05 01:05:44;;;;;;;18.23;4.67;;;11.70;99.90;;;;;;822772;172;26946;-78
2024/04/05 01:08:11;;;;;;;17.00;4.40;;;11.70;99.90;;;;;;821263;173;26389;-79
2024/04/05 01:10:39;;;;;;;15.27;3.93;;;11.70;99.90;;;;;;823328;172;26412;-80
2024/04/05 01:13:04;;;;;;;12.90;4.17;;;11.70;99.90;;;;;;820995;172;26426;-80
2024/04/05 01:15:31;;;;;;;15.27;4.27;;;11.70;99.90;;;;;;820812;172;26396;-80
2024/04/05 01:17:58;;;;;;;17.27;4.20;;;11.70;99.90;;;;;;817818;172;27144;-80
2024/04/05 01:20:25;;;;;;;9.90;3.50;;;11.70;99.90;;;;;;822152;172;26400;-80
2024/04/05 01:22:53;;;;;;;13.07;4.53;;;11.70;99.90;;;;;;818681;173;28008;-81
2024/04/05 01:25:20;;;;;;;14.60;4.70;;;11.80;99.90;;;;;;821526;172;26398;-80
2024/04/05 01:27:47;;;;;;;13.40;4.10;;;11.80;99.90;;;;;;822955;172;26379;-79
2024/04/05 01:30:14;;;;;;;15.73;4.07;;;11.80;99.90;;;;;;827365;172;26432;-80
2024/04/05 01:32:40;;;;;;;15.17;4.83;;;11.80;99.90;;;;;;824243;173;26971;-80
2024/04/05 01:35:07;;;;;;;12.00;3.63;;;11.80;99.90;;;;;;820215;173;26393;-80
2024/04/05 01:37:34;;;;;;;15.50;4.17;;;11.80;99.90;;;;;;825823;172;26948;-79
2024/04/05 01:40:00;;;;;;;15.00;4.20;;;11.90;99.90;;;;;;829610;172;26376;-80
2024/04/05 01:42:27;;;;;;;18.13;4.57;;;11.90;99.90;;;;;;818718;172;26413;-81
2024/04/05 01:44:53;;;;;;;15.10;5.63;;;11.90;99.90;;;;;;826839;172;26383;-80
2024/04/05 01:47:20;;;;;;;14.57;4.40;;;11.90;99.90;;;;;;824638;172;26429;-80
2024/04/05 01:49:46;;;;;;;13.47;4.50;;;11.90;99.90;;;;;;821199;173;26976;-80
2024/04/05 01:52:13;;;;;;;18.77;4.50;;;11.90;99.90;;;;;;825794;171;26407;-79
2024/04/05 01:54:40;;;;;;;15.97;5.10;;;11.90;99.90;;;;;;825161;172;26936;-80
2024/04/05 01:57:06;;;;;;;12.43;4.30;;;11.90;99.90;;;;;;825607;172;26393;-79
2024/04/05 01:59:33;;;;;;;15.00;4.40;;;11.90;99.90;;;;;;821399;173;26380;-81
2024/04/05 02:01:59;;;;;;;19.63;5.00;;;11.80;99.90;;;;;;824226;172;26423;-80
2024/04/05 02:04:26;;;;;;;15.43;5.00;;;11.70;99.90;;;;;;820664;172;26427;-81
2024/04/05 02:06:53;;;;;;;14.57;4.40;;;11.70;99.90;;;;;;827536;172;26412;-79
2024/04/05 02:09:19;;;;;;;14.07;5.13;;;11.70;99.90;;;;;;816880;172;26386;-80
2024/04/05 02:11:46;;;;;;;15.13;5.03;;;11.70;99.90;;;;;;815805;175;26439;-80
2024/04/05 02:14:13;;;;;;;17.47;4.50;;;11.60;99.90;;;;;;817299;172;26401;-79
2024/04/05 02:16:39;;;;;;;15.97;4.97;;;11.60;99.90;;;;;;818072;175;26393;-80
2024/04/05 02:19:06;;;;;;;15.30;4.37;;;11.70;99.90;;;;;;821960;173;26718;-79
2024/04/05 02:21:33;;;;;;;20.27;4.30;;;11.70;99.90;;;;;;824546;172;26435;-78
2024/04/05 02:23:59;;;;;;;8.97;3.67;;;11.80;99.90;;;;;;823279;172;28007;-79
2024/04/05 02:26:26;;;;;;;12.37;4.10;;;11.80;99.90;;;;;;818682;172;26409;-80
2024/04/05 02:28:53;;;;;;;11.83;4.20;;;11.80;99.90;;;;;;820314;173;26441;-80
2024/04/05 02:31:19;;;;;;;15.57;4.60;;;11.80;99.90;;;;;;821352;172;26384;-79
2024/04/05 02:33:46;;;;;;;17.30;4.40;;;11.80;99.90;;;;;;830101;172;26400;-80
2024/04/05 02:36:12;;;;;;;16.60;4.80;;;11.80;99.90;;;;;;823317;173;26368;-79
2024/04/05 02:38:39;;;;;;;12.07;4.27;;;11.70;99.90;;;;;;826659;172;26547;-80
2024/04/05 02:41:07;;;;;;;18.13;5.03;;;11.70;99.90;;;;;;821822;175;26405;-80
2024/04/05 02:43:32;;;;;;;16.43;5.33;;;11.60;99.90;;;;;;824207;172;26384;-80
2024/04/05 02:45:59;;;;;;;11.20;4.43;;;11.50;99.90;;;;;;828330;172;26383;-80
2024/04/05 02:48:25;;;;;;;17.13;5.27;;;11.50;99.90;;;;;;821507;173;26931;-80
2024/04/05 02:50:52;;;;;;;11.97;4.40;;;11.40;99.90;;;;;;814992;175;26395;-79
2024/04/05 02:53:19;;;;;;;16.10;4.50;;;11.40;99.90;;;;;;817928;172;26416;-80
2024/04/05 02:55:45;;;;;;;15.17;6.30;;;11.40;99.90;;;;;;819319;172;26373;-79
2024/04/05 02:58:12;;;;;;;22.23;8.20;;;11.30;99.90;;;;;;816232;173;26519;-79
2024/04/05 03:00:38;;;;;;;17.83;6.17;;;11.30;99.90;;;;;;829314;172;26399;-80
2024/04/05 03:03:05;;;;;;;14.93;5.00;;;11.30;99.90;;;;;;822012;173;26416;-80
2024/04/05 03:05:32;;;;;;;14.23;5.63;;;11.40;99.90;;;;;;823553;173;26994;-79
2024/04/05 03:07:58;;;;;;;16.03;5.07;;;11.40;99.90;;;;;;825034;172;26416;-80
2024/04/05 03:10:25;;;;;;;14.93;4.97;;;11.40;99.90;;;;;;822320;173;26393;-80
2024/04/05 03:12:51;;;;;;;18.30;5.37;;;11.40;99.90;;;;;;827340;172;26385;-80
2024/04/05 03:15:18;;;;;;;21.03;5.13;;;11.50;99.90;;;;;;827094;172;26395;-80
2024/04/05 03:17:45;;;;;;;15.73;5.03;;;11.50;99.90;;;;;;819094;173;26469;-80
2024/04/05 03:20:13;;;;;;;13.60;4.77;;;11.50;99.90;;;;;;816247;173;26424;-79
2024/04/05 03:22:40;;;;;;;16.13;4.13;;;11.50;99.90;;;;;;825156;172;26400;-78
2024/04/05 03:25:07;;;;;;;13.90;4.37;;;11.60;99.90;;;;;;820331;172;26383;-79
2024/04/05 03:27:33;;;;;;;17.97;5.13;;;11.60;99.90;;;;;;823931;172;26401;-79
2024/04/05 03:30:00;;;;;;;14.27;4.27;;;11.70;99.90;;;;;;826165;172;26426;-79
2024/04/05 03:32:27;;;;;;;16.87;4.63;;;11.80;99.90;;;;;;821300;172;26380;-79
2024/04/05 03:34:54;;;;;;;13.70;4.80;;;11.80;99.90;;;;;;821263;174;26452;-79
2024/04/05 03:37:23;;;;;;;11.80;4.33;;;11.90;99.90;;;;;;819576;172;26425;-80
2024/04/05 03:39:52;;;;;;;17.40;4.50;;;12.00;99.90;;;;;;820228;175;26443;-79
2024/04/05 03:42:20;;;;;;;14.60;4.63;;;12.10;99.90;;;;;;819172;172;26392;-79
2024/04/05 03:44:47;;;;;;;15.37;4.10;;;12.10;99.90;;;;;;822853;172;26436;-80
2024/04/05 03:47:14;;;;;;;9.33;3.73;;;12.20;99.90;;;;;;819129;173;26383;-78
2024/04/05 03:49:41;;;;;;;11.23;4.27;;;12.20;99.90;;;;;;819812;173;26374;-79
2024/04/05 03:52:07;;;;;;;15.23;4.87;;;12.30;99.90;;;;;;827613;172;26407;-79
2024/04/05 03:54:34;;;;;;;12.37;4.27;;;12.30;99.90;;;;;;822153;172;26411;-79
2024/04/05 03:57:01;;;;;;;14.27;4.93;;;12.30;99.90;;;;;;820849;172;26412;-80
2024/04/05 03:59:28;;;;;;;17.30;4.83;;;12.30;99.90;;;;;;817877;173;26415;-80
2024/04/05 04:01:54;;;;;;;16.30;4.40;;;12.30;99.90;;;;;;823605;172;26444;-79
2024/04/05 04:04:23;;;;;;;21.13;5.13;;;12.40;99.90;;;;;;819575;173;26406;-79
2024/04/05 04:06:50;;;;;;;16.70;4.57;;;12.30;99.90;;;;;;822790;173;26390;-80
2024/04/05 04:09:17;;;;;;;18.77;5.37;;;12.30;99.90;;;;;;827950;172;26385;-80
2024/04/05 04:11:44;;;;;;;19.33;5.10;;;12.30;99.90;;;;;;820323;172;26409;-79
2024/04/05 04:14:13;;;;;;;18.03;4.47;;;12.30;99.90;;;;;;828649;171;26380;-80
2024/04/05 04:16:38;;;;;;;17.27;5.10;;;12.40;99.90;;;;;;824425;172;26400;-80
2024/04/05 04:19:04;;;;;;;21.83;5.73;;;12.40;99.90;;;;;;828330;172;26388;-80
2024/04/05 04:21:31;;;;;;;16.17;5.80;;;12.40;99.90;;;;;;820397;175;26397;-80
2024/04/05 04:23:57;;;;;;;21.73;5.87;;;12.40;99.90;;;;;;817790;175;26392;-80
2024/04/05 04:26:24;;;;;;;17.07;5.13;;;12.40;99.90;;;;;;824431;173;26436;-79
2024/04/05 04:28:51;;;;;;;12.47;4.07;;;12.40;99.90;;;;;;819125;173;26433;-80
2024/04/05 04:31:20;;;;;;;17.47;4.37;;;12.40;99.90;;;;;;819547;172;26432;-80
2024/04/05 04:33:45;;;;;;;20.33;5.97;;;12.40;99.90;;;;;;822484;172;26419;-80
2024/04/05 04:36:12;;;;;;;15.20;4.67;;;12.40;99.90;;;;;;819254;173;26539;-80
2024/04/05 04:38:38;;;;;;;15.20;4.70;;;12.40;99.90;;;;;;819356;172;26380;-80
2024/04/05 04:41:05;;;;;;;14.83;5.07;;;12.40;99.90;;;;;;828327;172;26597;-79
2024/04/05 04:43:31;;;;;;;16.37;6.17;;;12.40;99.90;;;;;;824541;173;26381;-80
2024/04/05 04:45:59;;;;;;;18.10;5.20;;;12.40;99.90;;;;;;825341;172;26424;-80
2024/04/05 04:48:26;;;;;;;19.40;5.63;;;12.40;99.90;;;;;;824917;172;26994;-79
2024/04/05 04:50:54;;;;;;;10.60;4.17;;;12.30;99.90;;;;;;818899;173;26404;-79
2024/04/05 04:53:20;;;;;;;18.93;5.43;;;12.40;99.90;;;;;;828030;172;26407;-80
2024/04/05 04:55:47;;;;;;;19.83;5.00;;;12.40;99.90;;;;;;823700;172;26405;-80
2024/04/05 04:58:17;;;;;;;15.13;5.30;;;12.40;99.90;;;;;;822449;172;26393;-81
2024/04/05 05:00:40;;;;;;;21.60;5.63;;;12.40;99.90;;;;;;820366;172;26399;-81
2024/04/05 05:03:07;;;;;;;25.90;5.93;;;12.40;99.90;;;;;;825731;172;26391;-80
2024/04/05 05:05:33;;;;;;;21.70;5.80;;;12.30;99.90;;;;;;821085;172;26408;-77
2024/04/05 05:08:00;;;;;;;16.97;5.60;;;12.30;99.90;;;;;;817861;172;26412;-78
2024/04/05 05:10:26;;;;;;;14.00;5.80;;;12.30;99.90;;;;;;817582;172;26566;-78
2024/04/05 05:12:53;;;;;;;21.77;5.47;;;12.40;99.90;;;;;;818051;172;26421;-78
2024/04/05 05:15:20;;;;;;;20.50;5.77;;;12.40;99.90;;;;;;817448;172;26798;-78
2024/04/05 05:17:46;;;;;;;17.33;5.90;;;12.40;99.90;;;;;;818063;172;26404;-79
2024/04/05 05:20:16;;;;;;;18.77;5.83;;;12.40;99.90;;;;;;819111;172;26432;-80
2024/04/05 05:22:39;;;;;;;16.47;5.03;;;12.40;99.90;;;;;;818748;172;27256;-80
2024/04/05 05:25:06;;;;;;;17.70;6.43;;;12.40;99.90;;;;;;818147;172;26414;-79
2024/04/05 05:27:33;;;;;;;23.80;6.10;;;12.40;99.90;;;;;;821125;171;26582;-80
2024/04/05 05:29:59;;;;;;;19.60;5.60;;;12.40;99.90;;;;;;820544;172;26675;-79
2024/04/05 05:32:26;;;;;;;16.37;4.90;;;12.40;99.90;;;;;;820296;172;26408;-78
2024/04/05 05:34:52;;;;;;;20.60;5.60;;;12.50;99.90;;;;;;820781;172;26403;-79
2024/04/05 05:37:19;;;;;;;18.60;5.27;;;12.50;99.90;;;;;;820965;172;26467;-78
2024/04/05 05:39:46;;;;;;;19.20;5.87;;;12.50;99.90;;;;;;821229;172;26406;-78
2024/04/05 05:42:13;;;;;;;21.93;6.47;;;12.50;99.90;;;;;;821532;172;26512;-78
2024/04/05 05:44:39;;;;;;;19.50;5.73;;;12.50;99.90;;;;;;820791;172;26416;-78
2024/04/05 05:47:06;;;;;;;19.10;6.20;;;12.50;99.90;;;;;;819884;172;26472;-78
2024/04/05 05:49:32;;;;;;;16.43;4.90;;;12.60;99.90;;;;;;820064;172;26411;-77
2024/04/05 05:51:59;;;;;;;19.67;6.00;;;12.60;99.90;;;;;;818390;172;26449;-79
2024/04/05 05:54:26;;;;;;;13.47;5.37;;;12.60;99.90;;;;;;819897;172;26420;-79
2024/04/05 05:56:54;;;;;;;16.23;5.77;;;12.60;99.90;;;;;;818606;172;26414;-79
2024/04/05 05:59:19;;;;;;;19.97;5.73;;;12.60;99.90;;;;;;818961;172;26426;-79
2024/04/05 06:01:45;;;;;;;20.33;6.40;;;12.60;99.90;;;;;;818799;172;26980;-78
2024/04/05 06:04:12;;;;;;;20.60;6.20;;;12.60;99.90;;;;;;818474;172;26438;-79
2024/04/05 06:06:38;;;;;;;16.53;5.97;;;12.60;99.90;;;;;;819015;172;26421;-78
2024/04/05 06:09:06;;;;;;;18.37;5.70;;;12.70;99.90;;;;;;818278;172;26409;-80
2024/04/05 06:11:33;;;;;;;15.90;4.90;;;12.80;99.90;;;;;;821880;173;26423;-80
2024/04/05 06:13:59;;;;;;;19.13;6.20;;;12.90;99.90;;;;;;824079;173;26399;-80
2024/04/05 06:16:27;;;;;;;16.33;5.77;;;12.90;99.90;;;;;;816504;172;26401;-80
2024/04/05 06:18:52;;;;;;;18.17;5.57;;;13.00;99.90;;;;;;818908;172;26470;-80
2024/04/05 06:21:19;;;;;;;23.50;5.67;;;13.10;99.90;;;;;;819035;172;26412;-80
2024/04/05 06:23:46;;;;;;;15.10;4.90;;;13.10;99.90;;;;;;826442;172;26403;-81
2024/04/05 06:26:13;;;;;;;22.10;5.67;;;13.10;99.90;;;;;;818943;172;26391;-80
2024/04/05 06:28:39;;;;;;;18.33;5.93;;;13.10;99.90;;;;;;819667;172;26385;-80
2024/04/05 06:31:05;;;;;;;19.27;5.97;;;13.20;99.90;;;;;;818986;172;26413;-79
2024/04/05 06:33:32;;;;;;;16.60;5.57;;;13.20;99.90;;;;;;820997;172;26938;-79
2024/04/05 06:35:59;;;;;;;20.90;5.87;;;13.30;99.90;;;;;;823436;172;26408;-81
2024/04/05 06:38:26;;;;;;;19.93;5.63;;;13.40;99.90;;;;;;824202;171;26387;-80
2024/04/05 06:40:56;;;;;;;23.43;5.93;;;13.30;99.90;;;;;;821456;173;26618;-81
2024/04/05 06:43:23;;;;;;;16.83;6.70;;;13.40;99.90;;;;;;826867;172;26397;-81
2024/04/05 06:45:53;;;;;;;18.93;5.03;;;13.40;99.90;;;;;;823130;171;26378;-81
2024/04/05 06:48:19;;;;;;;19.63;5.20;;;13.50;99.90;;;;;;823178;172;26554;-81
2024/04/05 06:50:46;;;;;;;18.23;5.20;;;13.50;99.90;;;;;;825536;172;26470;-80
2024/04/05 06:53:12;;;;;;;17.73;4.97;;;13.70;99.90;;;;;;820278;172;26400;-80
2024/04/05 06:55:39;;;;;;;19.87;5.17;;;13.80;99.90;;;;;;822865;172;26395;-80
2024/04/05 06:58:05;;;;;;;16.10;4.33;;;13.90;99.90;;;;;;820010;172;26966;-80
2024/04/05 07:00:32;;;;;;;24.17;5.20;;;14.00;99.90;;;;;;823702;172;26409;-80
2024/04/05 07:02:59;;;;;;;15.80;5.00;;;14.00;99.90;;;;;;825011;172;26388;-79
2024/04/05 07:05:25;;;;;;;18.10;4.93;;;14.00;99.90;;;;;;821573;172;26802;-78
2024/04/05 07:07:52;;;;;;;23.17;5.23;;;14.10;99.90;;;;;;819558;172;26421;-79
2024/04/05 07:10:20;;;;;;;13.17;4.90;;;14.10;99.90;;;;;;818924;172;26510;-79
2024/04/05 07:12:48;;;;;;;18.43;5.70;;;14.20;99.90;;;;;;818557;172;26412;-79
2024/04/05 07:15:13;;;;;;;14.30;4.70;;;14.20;99.90;;;;;;818459;172;26408;-79
2024/04/05 07:17:38;;;;;;;15.00;4.03;;;14.30;99.90;;;;;;818584;172;26431;-79
2024/04/05 07:20:05;;;;;;;12.80;4.57;;;14.20;99.90;;;;;;819876;172;26415;-88
2024/04/05 07:22:32;;;;;;;19.77;5.13;;;14.20;99.90;;;;;;820450;172;26411;-79
2024/04/05 07:24:58;;;;;;;20.57;5.03;;;14.20;99.90;;;;;;826789;172;26401;-80
2024/04/05 07:27:25;;;;;;;14.30;4.70;;;14.30;99.90;;;;;;820998;172;26393;-80
2024/04/05 07:29:52;;;;;;;15.87;4.70;;;14.30;99.90;;;;;;823338;172;26384;-81
2024/04/05 07:32:18;;;;;;;16.27;4.70;;;14.30;99.90;;;;;;820968;172;26405;-79
2024/04/05 07:34:45;;;;;;;13.43;4.93;;;14.40;99.90;;;;;;819035;172;26368;-80
2024/04/05 07:37:11;;;;;;;18.67;4.90;;;14.40;99.90;;;;;;822580;172;26398;-80
2024/04/05 07:39:39;;;;;;;21.00;5.50;;;14.50;99.90;;;;;;828828;172;26393;-80
2024/04/05 07:42:05;;;;;;;17.03;5.23;;;14.50;99.90;;;;;;823786;173;26397;-79
2024/04/05 07:44:31;;;;;;;14.07;4.70;;;14.50;99.90;;;;;;825397;172;26403;-81
2024/04/05 07:46:58;;;;;;;13.97;4.00;;;14.70;99.90;;;;;;819726;172;26393;-80
2024/04/05 07:49:26;;;;;;;25.00;5.37;;;14.70;99.90;;;;;;824328;173;26383;-80
2024/04/05 07:51:51;;;;;;;16.40;4.50;;;14.70;99.90;;;;;;819556;172;26944;-83
2024/04/05 07:54:20;;;;;;;15.70;4.20;;;14.80;99.90;;;;;;821035;173;26404;-85
2024/04/05 07:56:45;;;;;;;17.77;4.27;;;14.90;99.90;;;;;;806696;176;26439;-86
2024/04/05 07:59:12;;;;;;;18.77;4.37;;;15.10;99.90;;;;;;804485;177;26416;-85
2024/04/05 08:01:38;;;;;;;18.37;5.03;;;15.20;99.90;;;;;;802389;178;26429;-85
2024/04/05 08:04:05;;;;;;;11.83;3.90;;;15.30;99.90;;;;;;800352;178;26424;-84
2024/04/05 08:06:32;;;;;;;15.70;4.30;;;15.30;99.90;;;;;;796337;179;26445;-85
2024/04/05 08:08:58;;;;;;;16.30;5.23;;;15.40;99.90;;;;;;788924;181;26596;-85
2024/04/05 08:11:25;;;;;;;12.50;3.73;;;15.50;99.90;;;;;;793690;179;26442;-85
2024/04/05 08:13:52;;;;;;;13.53;4.00;;;15.40;99.90;;;;;;801831;179;26611;-85
2024/04/05 08:16:19;;;;;;;15.67;4.47;;;15.30;99.90;;;;;;793222;178;26447;-85
2024/04/05 08:18:46;;;;;;;14.53;3.70;;;15.20;99.90;;;;;;795443;179;26447;-87
2024/04/05 08:21:12;;;;;;;14.10;4.10;;;15.10;99.90;;;;;;799390;179;26510;-84
2024/04/05 08:23:39;;;;;;;14.40;3.70;;;15.10;99.90;;;;;;791590;179;26425;-84
2024/04/05 08:26:06;;;;;;;13.67;3.63;;;15.10;99.90;;;;;;805790;173;26437;-85
2024/04/05 08:28:44;;;;;;;10.40;3.47;;;15.00;99.90;;;;;;807845;173;26436;-84
2024/04/05 08:31:11;;;;;;;15.00;3.93;;;15.00;99.90;;;;;;795883;177;26443;-83
2024/04/05 08:33:38;;;;;;;13.90;3.43;;;15.10;99.90;;;;;;789619;180;26414;-85
2024/04/05 08:36:07;;;;;;;10.00;3.87;;;15.00;99.90;;;;;;802116;175;26417;-85
2024/04/05 08:38:33;;;;;;;15.40;3.83;;;15.00;99.90;;;;;;792232;180;26414;-85
2024/04/05 08:41:00;;;;;;;10.47;3.77;;;15.10;99.90;;;;;;791991;180;26424;-85
2024/04/05 08:43:27;;;;;;;13.27;3.90;;;15.10;99.90;;;;;;789629;181;26424;-83
2024/04/05 08:45:55;;;;;;;13.60;3.60;;;15.20;99.90;;;;;;789068;181;26412;-84
2024/04/05 08:48:21;;;;;;;12.97;3.83;;;15.20;99.90;;;;;;789749;180;26418;-86
2024/04/05 08:50:47;;;;;;;13.30;4.37;;;15.30;99.90;;;;;;800811;179;27062;-85
2024/04/05 08:53:14;;;;;;;15.10;3.87;;;15.40;99.90;;;;;;800758;179;26436;-86
2024/04/05 08:55:41;;;;;;;13.83;3.73;;;15.40;99.90;;;;;;791872;179;26420;-84
2024/04/05 08:58:09;;;;;;;12.93;4.30;;;15.50;99.90;;;;;;793193;178;26979;-85
2024/04/05 09:00:35;;;;;;;11.37;3.60;;;15.60;99.90;;;;;;796331;177;26445;-84
2024/04/05 09:03:02;;;;;;;9.77;3.50;;;15.60;99.90;;;;;;796964;178;26449;-84
2024/04/05 09:05:32;;;;;;;13.40;3.33;;;15.70;99.90;;;;;;798884;177;27032;-83
2024/04/05 09:08:06;;;;;;;9.37;3.10;;;15.90;99.90;;;;;;797978;178;26432;-85
2024/04/05 09:10:33;;;;;;;11.47;3.40;;;16.00;99.90;;;;;;782078;179;26523;-85
2024/04/05 09:12:59;;;;;;;11.40;3.23;;;16.00;99.90;;;;;;796087;178;26870;-85
2024/04/05 09:15:26;;;;;;;8.50;3.20;;;16.10;99.90;;;;;;795709;177;26422;-85
2024/04/05 09:17:55;;;;;;;11.20;3.33;;;16.20;99.90;;;;;;796090;178;26472;-86
2024/04/05 09:20:24;;;;;;;9.53;3.00;;;16.40;99.90;;;;;;797793;173;26502;-85
2024/04/05 09:23:00;;;;;;;13.37;3.20;;;16.70;99.90;;;;;;795596;178;26445;-85
2024/04/05 09:25:27;;;;;;;8.40;3.20;;;16.90;99.90;;;;;;795116;178;26421;-85
2024/04/05 09:28:10;;;;;;;11.03;3.90;;;17.00;99.90;;;;;;795787;178;26413;-85
2024/04/05 09:30:37;;;;;;;9.37;2.97;;;17.20;99.90;;;;;;794854;178;26444;-87
2024/04/05 09:33:03;;;;;;;9.63;3.20;;;17.30;99.90;;;;;;799863;174;26431;-85
2024/04/05 09:35:31;;;;;;;10.03;3.30;;;17.30;99.90;;;;;;800326;178;26429;-87
2024/04/05 09:37:58;;;;;;;12.43;3.30;;;17.20;99.90;;;;;;796732;179;26441;-86
2024/04/05 09:40:24;;;;;;;10.33;3.20;;;17.00;99.90;;;;;;798582;178;27006;-84
2024/04/05 09:42:52;;;;;;;11.57;3.17;;;16.80;99.90;;;;;;793647;178;26504;-85
2024/04/05 09:45:21;;;;;;;11.23;3.57;;;16.50;99.90;;;;;;794959;178;27051;-84
2024/04/05 09:47:47;;;;;;;11.53;3.97;;;16.50;99.90;;;;;;794906;178;26449;-84
2024/04/05 09:50:14;;;;;;;10.07;3.60;;;16.50;99.90;;;;;;794651;178;26461;-84
2024/04/05 09:52:43;;;;;;;11.10;4.20;;;16.50;99.90;;;;;;791074;178;26424;-85
2024/04/05 09:55:08;;;;;;;8.10;3.27;;;16.50;99.90;;;;;;800647;178;27030;-85
2024/04/05 09:57:34;;;;;;;9.03;3.40;;;16.50;99.90;;;;;;795528;178;26437;-84
2024/04/05 10:00:00;;;;;;;14.80;4.60;;;16.50;99.90;;;;;;795555;179;26464;-84
2024/04/05 10:02:27;;;;;;;10.17;3.40;;;16.60;99.90;;;;;;795337;178;26471;-83
2024/04/05 10:04:54;;;;;;;13.33;4.00;;;16.60;99.90;;;;;;799528;178;26418;-85
2024/04/05 10:07:25;;;;;;;11.40;3.80;;;16.80;99.90;;;;;;793783;178;26449;-84
2024/04/05 10:09:52;;;;;;;13.33;3.57;;;16.70;99.90;;;;;;793656;179;26600;-86
2024/04/05 10:12:21;;;;;;;12.83;4.20;;;16.80;99.90;;;;;;796655;177;26432;-86
2024/04/05 10:14:53;;;;;;;9.03;3.83;;;16.90;99.90;;;;;;795089;179;26424;-84
2024/04/05 10:17:19;;;;;;;16.03;4.73;;;16.90;99.90;;;;;;794915;179;26467;-84
2024/04/05 10:19:48;;;;;;;7.13;3.20;;;17.00;99.90;;;;;;793882;179;26435;-83
2024/04/05 10:22:18;;;;;;;20.33;9.80;;;17.00;99.90;;;;;;800355;179;26425;-85
2024/04/05 10:24:40;;;;;;;8.60;3.57;;;16.90;99.90;;;;;;798465;178;26428;-85
2024/04/05 10:27:11;;;;;;;8.30;3.30;;;16.90;99.90;;;;;;793289;178;26413;-85
2024/04/05 10:29:36;;;;;;;6.60;3.37;;;16.80;99.90;;;;;;794271;178;26434;-84
2024/04/05 10:32:06;;;;;;;11.43;4.07;;;16.60;99.90;;;;;;794158;179;26572;-85
2024/04/05 10:34:31;;;;;;;7.50;3.77;;;16.60;99.90;;;;;;795987;179;26436;-85
2024/04/05 10:36:57;;;;;;;13.43;3.80;;;16.60;99.90;;;;;;805216;178;27008;-85
2024/04/05 10:39:24;;;;;;;8.27;3.97;;;16.60;99.90;;;;;;792384;177;26438;-85
2024/04/05 10:41:50;;;;;;;13.80;4.17;;;16.50;99.90;;;;;;795965;178;26456;-86
2024/04/05 10:44:18;;;;;;;9.37;3.30;;;16.50;99.90;;;;;;792970;179;26489;-84
2024/04/05 10:46:48;;;;;;;8.90;3.97;;;16.50;99.90;;;;;;795694;179;26433;-84
2024/04/05 10:49:12;;;;;;;12.67;3.93;;;16.50;99.90;;;;;;800333;179;26469;-84
2024/04/05 10:51:38;;;;;;;9.87;4.40;;;16.50;99.90;;;;;;790666;179;26982;-85
2024/04/05 10:54:11;;;;;;;16.10;4.60;;;16.70;99.90;;;;;;793632;178;26475;-85
2024/04/05 10:56:40;;;;;;;11.30;4.20;;;16.80;99.90;;;;;;794959;178;26509;-85
2024/04/05 10:59:07;;;;;;;14.10;3.83;;;16.90;99.90;;;;;;795072;175;26626;-85
2024/04/05 11:01:35;;;;;;;8.37;4.30;;;16.90;99.90;;;;;;794567;178;26445;-85
2024/04/05 11:04:00;;;;;;;9.37;3.80;;;16.90;99.90;;;;;;793848;178;26448;-86
2024/04/05 11:06:27;;;;;;;10.77;3.90;;;16.90;99.90;;;;;;794907;178;27020;-86
2024/04/05 11:08:55;;;;;;;14.77;4.47;;;16.90;99.90;;;;;;794668;178;26500;-85
2024/04/05 11:11:20;;;;;;;9.83;3.97;;;16.90;99.90;;;;;;796332;179;26429;-85
2024/04/05 11:13:47;;;;;;;11.37;4.33;;;16.90;99.90;;;;;;791882;179;26439;-86
2024/04/05 11:16:16;;;;;;;11.67;4.77;;;16.90;99.90;;;;;;798855;179;26434;-87
2024/04/05 11:18:46;;;;;;;11.60;5.03;;;17.00;99.90;;;;;;794944;178;26448;-84
2024/04/05 11:21:16;;;;;;;10.73;5.13;;;17.00;99.90;;;;;;795492;178;27084;-84
2024/04/05 11:23:47;;;;;;;7.77;4.10;;;17.10;99.90;;;;;;796221;177;26474;-84
2024/04/05 11:26:14;;;;;;;7.70;3.50;;;17.30;99.90;;;;;;796677;178;26433;-86
2024/04/05 11:28:44;;;;;;;7.97;3.13;;;17.50;99.90;;;;;;795719;178;26449;-86
2024/04/05 11:31:07;;;;;;;5.93;2.70;;;17.80;99.90;;;;;;794728;178;27037;-85
2024/04/05 11:33:35;;;;;;;6.00;2.70;;;18.00;99.90;;;;;;796105;178;26451;-84
2024/04/05 11:36:01;;;;;;;5.00;2.80;;;18.20;99.90;;;;;;796776;178;26456;-84
2024/04/05 11:38:29;;;;;;;6.23;3.20;;;18.30;99.90;;;;;;795664;178;26427;-85
2024/04/05 11:40:55;;;;;;;9.73;2.93;;;18.30;99.90;;;;;;795317;178;26473;-84
2024/04/05 11:43:21;;;;;;;12.00;5.57;;;18.40;99.90;;;;;;797011;178;26938;-83
2024/04/05 11:45:48;;;;;;;13.97;6.03;;;18.40;99.90;;;;;;795966;178;26443;-85
2024/04/05 11:48:15;;;;;;;17.90;9.50;;;18.40;99.90;;;;;;796314;178;26440;-86
2024/04/05 11:50:41;;;;;;;10.60;5.30;;;18.40;99.90;;;;;;795954;178;26456;-83
2024/04/05 11:53:08;;;;;;;7.13;3.57;;;18.60;99.90;;;;;;792423;179;26580;-84
2024/04/05 11:55:35;;;;;;;24.93;13.87;;;18.70;99.90;;;;;;795712;179;26431;-85
2024/04/05 11:58:01;;;;;;;22.93;13.60;;;18.80;99.90;;;;;;795833;179;26464;-84
2024/04/05 12:00:28;;;;;;;22.10;13.23;;;18.80;99.90;;;;;;793669;179;26476;-85
2024/04/05 12:02:55;;;;;;;8.27;3.63;;;18.80;99.90;;;;;;793089;179;26449;-84
2024/04/05 12:05:21;;;;;;;14.50;7.53;;;18.90;99.90;;;;;;798708;178;26415;-84
2024/04/05 12:07:49;;;;;;;13.87;7.53;;;18.90;99.90;;;;;;796711;179;27025;-84
2024/04/05 12:10:15;;;;;;;8.17;4.37;;;18.90;99.90;;;;;;797501;178;26484;-84
2024/04/05 12:12:41;;;;;;;5.93;2.87;;;19.00;99.90;;;;;;796609;178;26450;-86
2024/04/05 12:15:08;;;;;;;7.83;3.10;;;18.90;99.90;;;;;;796326;177;27111;-85
2024/04/05 12:17:36;;;;;;;11.63;4.00;;;18.80;99.90;;;;;;791755;178;26405;-84
2024/04/05 12:20:04;;;;;;;7.47;2.97;;;18.80;99.90;;;;;;794568;179;26462;-84
2024/04/05 12:22:30;;;;;;;10.80;4.97;;;18.80;99.90;;;;;;776300;182;26527;-85
2024/04/05 12:24:57;;;;;;;7.77;3.57;;;18.80;99.90;;;;;;798351;178;26433;-85
2024/04/05 12:27:24;;;;;;;10.50;5.07;;;18.70;99.90;;;;;;792036;178;26441;-85
2024/04/05 12:29:51;;;;;;;18.93;9.87;;;18.60;99.90;;;;;;798095;178;26450;-85
2024/04/05 12:32:18;;;;;;;16.53;8.53;;;18.40;99.90;;;;;;796021;178;26430;-86
2024/04/05 12:34:44;;;;;;;14.63;6.53;;;18.30;99.90;;;;;;800517;178;26414;-86
2024/04/05 12:37:21;;;;;;;32.13;16.53;;;18.30;99.90;;;;;;800124;177;26454;-86